sensor_id;sensor_type;location;lat;lon;timestamp;pressure;altitude;pressure_sealevel;temperature;humidity
24962;BME280;12992;50.884;13.668;2023-03-22T00:01:52;97110.44;;;9.90;100.00
24962;BME280;12992;50.884;13.668;2023-03-22T00:04:18;97114.00;;;9.96;100.00
24962;BME280;12992;50.884;13.668;2023-03-22T00:06:43;97120.59;;;10.00;100.00
24962;BME280;12992;50.884;13.668;2023-03-22T00:09:10;97113.53;;;10.04;100.00
24962;BME280;12992;50.884;13.668;2023-03-22T00:11:36;97102.09;;;10.02;100.00
24962;BME280;12992;50.884;13.668;2023-03-22T00:14:01;97091.16;;;9.97;100.00
24962;BME280;12992;50.884;13.668;2023-03-22T00:16:26;97081.88;;;9.92;100.00
24962;BME280;12992;50.884;13.668;2023-03-22T00:18:52;97093.41;;;10.05;100.00
24962;BME280;12992;50.884;13.668;2023-03-22T00:21:17;97097.78;;;10.06;100.00
24962;BME280;12992;50.884;13.668;2023-03-22T00:23:43;97082.50;;;10.00;100.00
24962;BME280;12992;50.884;13.668;2023-03-22T00:26:10;97082.97;;;9.91;100.00
24962;BME280;12992;50.884;13.668;2023-03-22T00:28:37;97080.19;;;9.86;100.00
24962;BME280;12992;50.884;13.668;2023-03-22T00:31:03;97083.16;;;9.85;100.00
24962;BME280;12992;50.884;13.668;2023-03-22T00:33:29;97102.84;;;9.97;100.00
24962;BME280;12992;50.884;13.668;2023-03-22T00:36:03;97097.75;;;10.01;100.00
24962;BME280;12992;50.884;13.668;2023-03-22T00:38:28;97094.75;;;10.02;100.00
24962;BME280;12992;50.884;13.668;2023-03-22T00:41:24;97091.50;;;10.05;100.00
24962;BME280;12992;50.884;13.668;2023-03-22T00:43:50;97097.00;;;10.10;100.00
24962;BME280;12992;50.884;13.668;2023-03-22T00:46:17;97090.78;;;10.15;100.00
24962;BME280;12992;50.884;13.668;2023-03-22T00:48:44;97078.78;;;10.11;100.00
24962;BME280;12992;50.884;13.668;2023-03-22T00:51:11;97079.91;;;10.15;100.00
24962;BME280;12992;50.884;13.668;2023-03-22T00:53:37;97081.34;;;10.23;100.00
24962;BME280;12992;50.884;13.668;2023-03-22T00:56:04;97067.75;;;10.23;100.00
24962;BME280;12992;50.884;13.668;2023-03-22T00:58:36;97049.97;;;10.15;100.00
24962;BME280;12992;50.884;13.668;2023-03-22T01:01:02;97048.78;;;10.06;100.00
24962;BME280;12992;50.884;13.668;2023-03-22T01:03:27;97048.50;;;10.02;100.00
24962;BME280;12992;50.884;13.668;2023-03-22T01:05:54;97047.94;;;10.00;100.00
24962;BME280;12992;50.884;13.668;2023-03-22T01:08:21;97044.63;;;9.93;100.00
24962;BME280;12992;50.884;13.668;2023-03-22T01:10:47;97042.38;;;9.85;100.00
24962;BME280;12992;50.884;13.668;2023-03-22T01:13:12;97033.59;;;9.78;100.00
24962;BME280;12992;50.884;13.668;2023-03-22T01:15:38;97043.13;;;9.80;100.00
24962;BME280;12992;50.884;13.668;2023-03-22T01:18:04;97042.88;;;9.82;100.00
24962;BME280;12992;50.884;13.668;2023-03-22T01:20:30;97041.84;;;9.88;100.00
24962;BME280;12992;50.884;13.668;2023-03-22T01:22:56;97028.50;;;9.86;100.00
24962;BME280;12992;50.884;13.668;2023-03-22T01:25:21;97013.72;;;9.77;100.00
24962;BME280;12992;50.884;13.668;2023-03-22T01:27:46;97009.91;;;9.73;100.00
24962;BME280;12992;50.884;13.668;2023-03-22T01:30:12;97007.31;;;9.61;100.00
24962;BME280;12992;50.884;13.668;2023-03-22T01:32:37;96994.97;;;9.49;100.00
24962;BME280;12992;50.884;13.668;2023-03-22T01:35:04;96991.09;;;9.40;100.00
24962;BME280;12992;50.884;13.668;2023-03-22T01:37:30;96976.34;;;9.35;100.00
24962;BME280;12992;50.884;13.668;2023-03-22T01:39:57;96973.34;;;9.32;100.00
24962;BME280;12992;50.884;13.668;2023-03-22T01:42:23;96969.97;;;9.20;100.00
24962;BME280;12992;50.884;13.668;2023-03-22T01:47:35;96967.38;;;9.08;100.00
24962;BME280;12992;50.884;13.668;2023-03-22T01:50:01;96971.97;;;9.07;100.00
24962;BME280;12992;50.884;13.668;2023-03-22T01:52:27;96968.16;;;9.03;100.00
24962;BME280;12992;50.884;13.668;2023-03-22T01:55:04;96963.16;;;8.95;100.00
24962;BME280;12992;50.884;13.668;2023-03-22T01:57:40;96944.41;;;8.94;100.00
24962;BME280;12992;50.884;13.668;2023-03-22T02:00:11;96945.97;;;8.90;100.00
24962;BME280;12992;50.884;13.668;2023-03-22T02:02:47;96945.94;;;8.85;100.00
24962;BME280;12992;50.884;13.668;2023-03-22T02:05:21;96944.78;;;8.80;100.00
24962;BME280;12992;50.884;13.668;2023-03-22T02:07:48;96952.44;;;8.84;100.00
24962;BME280;12992;50.884;13.668;2023-03-22T02:10:17;96944.47;;;8.77;100.00
24962;BME280;12992;50.884;13.668;2023-03-22T02:13:24;96939.25;;;8.70;100.00
24962;BME280;12992;50.884;13.668;2023-03-22T02:16:34;96925.47;;;8.55;100.00
24962;BME280;12992;50.884;13.668;2023-03-22T02:22:08;96922.38;;;8.46;100.00
24962;BME280;12992;50.884;13.668;2023-03-22T02:27:39;96908.13;;;8.17;100.00
24962;BME280;12992;50.884;13.668;2023-03-22T02:39:06;96921.31;;;7.92;100.00
24962;BME280;12992;50.884;13.668;2023-03-22T02:44:41;96913.97;;;7.71;100.00
24962;BME280;12992;50.884;13.668;2023-03-22T02:50:01;96909.44;;;7.59;100.00
24962;BME280;12992;50.884;13.668;2023-03-22T02:55:15;96924.06;;;7.58;100.00
24962;BME280;12992;50.884;13.668;2023-03-22T02:57:58;96911.16;;;7.49;100.00
24962;BME280;12992;50.884;13.668;2023-03-22T03:00:24;96912.16;;;7.43;100.00
24962;BME280;12992;50.884;13.668;2023-03-22T03:02:53;96906.91;;;7.36;100.00
24962;BME280;12992;50.884;13.668;2023-03-22T03:05:22;96893.25;;;7.31;100.00
24962;BME280;12992;50.884;13.668;2023-03-22T03:07:53;96914.09;;;7.30;100.00
24962;BME280;12992;50.884;13.668;2023-03-22T03:10:21;96918.81;;;7.35;100.00
24962;BME280;12992;50.884;13.668;2023-03-22T03:12:47;96915.75;;;7.31;100.00
24962;BME280;12992;50.884;13.668;2023-03-22T03:15:19;96904.25;;;7.24;100.00
24962;BME280;12992;50.884;13.668;2023-03-22T03:18:32;96942.03;;;7.48;100.00
24962;BME280;12992;50.884;13.668;2023-03-22T03:27:16;96938.25;;;7.65;100.00
24962;BME280;12992;50.884;13.668;2023-03-22T03:29:57;96933.00;;;7.59;100.00
24962;BME280;12992;50.884;13.668;2023-03-22T03:32:33;96923.63;;;7.50;100.00
24962;BME280;12992;50.884;13.668;2023-03-22T03:35:07;96925.47;;;7.44;100.00
24962;BME280;12992;50.884;13.668;2023-03-22T03:37:42;96921.00;;;7.38;100.00
24962;BME280;12992;50.884;13.668;2023-03-22T03:40:10;96907.56;;;7.26;100.00
24962;BME280;12992;50.884;13.668;2023-03-22T03:42:40;96904.41;;;7.18;100.00
24962;BME280;12992;50.884;13.668;2023-03-22T03:45:08;96905.38;;;7.12;100.00
24962;BME280;12992;50.884;13.668;2023-03-22T03:47:36;96914.59;;;7.10;100.00
24962;BME280;12992;50.884;13.668;2023-03-22T03:50:03;96921.88;;;7.10;100.00
24962;BME280;12992;50.884;13.668;2023-03-22T03:52:30;96918.34;;;7.09;100.00
24962;BME280;12992;50.884;13.668;2023-03-22T03:54:55;96913.34;;;7.01;100.00
24962;BME280;12992;50.884;13.668;2023-03-22T03:57:27;96920.97;;;7.04;100.00
24962;BME280;12992;50.884;13.668;2023-03-22T03:59:52;96925.22;;;7.00;100.00
24962;BME280;12992;50.884;13.668;2023-03-22T04:02:27;96926.88;;;7.01;100.00
24962;BME280;12992;50.884;13.668;2023-03-22T04:04:56;96933.44;;;7.05;100.00
24962;BME280;12992;50.884;13.668;2023-03-22T04:07:22;96954.81;;;7.19;100.00
24962;BME280;12992;50.884;13.668;2023-03-22T04:09:47;96950.78;;;7.21;100.00
24962;BME280;12992;50.884;13.668;2023-03-22T04:12:27;96954.06;;;7.23;100.00
24962;BME280;12992;50.884;13.668;2023-03-22T04:15:11;96949.25;;;7.25;100.00
24962;BME280;12992;50.884;13.668;2023-03-22T04:17:37;96948.31;;;7.20;100.00
24962;BME280;12992;50.884;13.668;2023-03-22T04:20:05;96952.66;;;7.21;100.00
24962;BME280;12992;50.884;13.668;2023-03-22T04:22:33;96946.75;;;7.24;100.00
24962;BME280;12992;50.884;13.668;2023-03-22T04:25:00;96940.53;;;7.23;100.00
24962;BME280;12992;50.884;13.668;2023-03-22T04:27:26;96950.38;;;7.29;100.00
24962;BME280;12992;50.884;13.668;2023-03-22T04:29:57;96939.81;;;7.28;100.00
24962;BME280;12992;50.884;13.668;2023-03-22T04:32:45;96945.47;;;7.26;100.00
24962;BME280;12992;50.884;13.668;2023-03-22T04:35:12;96944.41;;;7.27;100.00
24962;BME280;12992;50.884;13.668;2023-03-22T04:37:37;96944.66;;;7.26;100.00
24962;BME280;12992;50.884;13.668;2023-03-22T04:40:12;96951.78;;;7.32;100.00
24962;BME280;12992;50.884;13.668;2023-03-22T04:43:01;96949.06;;;7.32;100.00
24962;BME280;12992;50.884;13.668;2023-03-22T04:45:48;96945.28;;;7.33;100.00
24962;BME280;12992;50.884;13.668;2023-03-22T04:48:18;96951.88;;;7.37;100.00
24962;BME280;12992;50.884;13.668;2023-03-22T04:50:46;96948.00;;;7.33;100.00
24962;BME280;12992;50.884;13.668;2023-03-22T04:53:12;96955.16;;;7.39;100.00
24962;BME280;12992;50.884;13.668;2023-03-22T04:55:38;96952.81;;;7.43;100.00
24962;BME280;12992;50.884;13.668;2023-03-22T04:58:03;96956.91;;;7.45;100.00
24962;BME280;12992;50.884;13.668;2023-03-22T05:00:29;96964.06;;;7.51;100.00
24962;BME280;12992;50.884;13.668;2023-03-22T05:02:56;96964.06;;;7.51;100.00
24962;BME280;12992;50.884;13.668;2023-03-22T05:05:31;96956.97;;;7.50;100.00
24962;BME280;12992;50.884;13.668;2023-03-22T05:07:59;96952.06;;;7.47;100.00
24962;BME280;12992;50.884;13.668;2023-03-22T05:10:24;96958.16;;;7.54;100.00
24962;BME280;12992;50.884;13.668;2023-03-22T05:12:50;96962.81;;;7.59;100.00
24962;BME280;12992;50.884;13.668;2023-03-22T05:15:20;96961.53;;;7.61;100.00
24962;BME280;12992;50.884;13.668;2023-03-22T05:17:47;96962.91;;;7.64;100.00
24962;BME280;12992;50.884;13.668;2023-03-22T05:20:13;96963.22;;;7.67;100.00
24962;BME280;12992;50.884;13.668;2023-03-22T05:22:41;96970.88;;;7.71;100.00
24962;BME280;12992;50.884;13.668;2023-03-22T05:25:08;96963.88;;;7.75;100.00
24962;BME280;12992;50.884;13.668;2023-03-22T05:27:35;96972.13;;;7.80;100.00
24962;BME280;12992;50.884;13.668;2023-03-22T05:30:30;96975.41;;;7.82;100.00
24962;BME280;12992;50.884;13.668;2023-03-22T05:33:03;96985.72;;;7.85;100.00
24962;BME280;12992;50.884;13.668;2023-03-22T05:35:34;96984.19;;;7.89;100.00
24962;BME280;12992;50.884;13.668;2023-03-22T05:38:01;96997.34;;;7.97;100.00
24962;BME280;12992;50.884;13.668;2023-03-22T05:40:30;96993.06;;;8.01;100.00
24962;BME280;12992;50.884;13.668;2023-03-22T05:42:56;96996.94;;;8.05;100.00
24962;BME280;12992;50.884;13.668;2023-03-22T05:45:24;97006.09;;;8.21;100.00
24962;BME280;12992;50.884;13.668;2023-03-22T05:48:02;97004.72;;;8.35;100.00
24962;BME280;12992;50.884;13.668;2023-03-22T05:50:29;97006.25;;;8.48;100.00
24962;BME280;12992;50.884;13.668;2023-03-22T05:52:54;97015.38;;;8.59;100.00
24962;BME280;12992;50.884;13.668;2023-03-22T05:55:26;97015.25;;;8.70;100.00
24962;BME280;12992;50.884;13.668;2023-03-22T05:58:00;97018.66;;;8.83;100.00
24962;BME280;12992;50.884;13.668;2023-03-22T06:00:27;97027.19;;;8.91;100.00
24962;BME280;12992;50.884;13.668;2023-03-22T06:03:22;97014.59;;;9.02;100.00
24962;BME280;12992;50.884;13.668;2023-03-22T06:05:54;97024.50;;;9.13;100.00
24962;BME280;12992;50.884;13.668;2023-03-22T06:08:25;97038.19;;;9.23;100.00
24962;BME280;12992;50.884;13.668;2023-03-22T06:10:52;97040.31;;;9.43;100.00
24962;BME280;12992;50.884;13.668;2023-03-22T06:13:18;97033.13;;;9.59;100.00
24962;BME280;12992;50.884;13.668;2023-03-22T06:15:45;97031.59;;;9.68;100.00
24962;BME280;12992;50.884;13.668;2023-03-22T06:18:17;97039.09;;;9.83;100.00
24962;BME280;12992;50.884;13.668;2023-03-22T06:20:47;97039.81;;;10.05;100.00
24962;BME280;12992;50.884;13.668;2023-03-22T06:23:17;97065.50;;;10.46;100.00
24962;BME280;12992;50.884;13.668;2023-03-22T06:25:44;97059.75;;;10.85;100.00
24962;BME280;12992;50.884;13.668;2023-03-22T06:28:10;97049.56;;;11.18;99.38
24962;BME280;12992;50.884;13.668;2023-03-22T06:30:38;97049.63;;;11.33;98.31
24962;BME280;12992;50.884;13.668;2023-03-22T06:33:36;97036.03;;;11.43;97.42
24962;BME280;12992;50.884;13.668;2023-03-22T06:36:16;97013.63;;;11.36;95.66
24962;BME280;12992;50.884;13.668;2023-03-22T06:39:02;97011.72;;;11.31;97.95
24962;BME280;12992;50.884;13.668;2023-03-22T06:41:29;97006.28;;;11.31;96.71
24962;BME280;12992;50.884;13.668;2023-03-22T06:43:54;96988.53;;;11.24;96.26
24962;BME280;12992;50.884;13.668;2023-03-22T06:46:40;96990.13;;;11.20;97.59
24962;BME280;12992;50.884;13.668;2023-03-22T06:49:15;96981.94;;;11.10;98.78
24962;BME280;12992;50.884;13.668;2023-03-22T06:51:41;96974.03;;;11.08;97.86
24962;BME280;12992;50.884;13.668;2023-03-22T06:54:06;96973.22;;;11.07;97.52
24962;BME280;12992;50.884;13.668;2023-03-22T06:56:32;96981.13;;;11.09;97.80
24962;BME280;12992;50.884;13.668;2023-03-22T06:58:59;96986.84;;;11.13;98.97
24962;BME280;12992;50.884;13.668;2023-03-22T07:01:24;96988.50;;;11.19;99.48
24962;BME280;12992;50.884;13.668;2023-03-22T07:03:50;97000.25;;;11.24;98.05
24962;BME280;12992;50.884;13.668;2023-03-22T07:06:19;97013.94;;;11.40;97.55
24962;BME280;12992;50.884;13.668;2023-03-22T07:08:48;97022.13;;;11.55;97.80
24962;BME280;12992;50.884;13.668;2023-03-22T07:11:17;97029.53;;;11.70;97.80
24962;BME280;12992;50.884;13.668;2023-03-22T07:13:47;97028.50;;;11.81;95.28
24962;BME280;12992;50.884;13.668;2023-03-22T07:16:17;97040.25;;;11.97;95.26
24962;BME280;12992;50.884;13.668;2023-03-22T07:18:50;97029.09;;;12.03;94.87
24962;BME280;12992;50.884;13.668;2023-03-22T07:21:15;97029.63;;;12.10;94.73
24962;BME280;12992;50.884;13.668;2023-03-22T07:23:45;97012.16;;;12.06;91.10
24962;BME280;12992;50.884;13.668;2023-03-22T07:26:14;97019.53;;;12.11;91.77
24962;BME280;12992;50.884;13.668;2023-03-22T07:28:43;97001.78;;;12.08;89.70
24962;BME280;12992;50.884;13.668;2023-03-22T07:31:11;97008.31;;;12.17;90.58
24962;BME280;12992;50.884;13.668;2023-03-22T07:33:45;97023.06;;;12.32;92.12
24962;BME280;12992;50.884;13.668;2023-03-22T07:36:12;97006.16;;;12.30;90.43
24962;BME280;12992;50.884;13.668;2023-03-22T07:38:38;96999.03;;;12.34;87.93
24962;BME280;12992;50.884;13.668;2023-03-22T07:41:08;96983.22;;;12.31;86.84
24962;BME280;12992;50.884;13.668;2023-03-22T07:43:50;96977.22;;;12.29;87.49
24962;BME280;12992;50.884;13.668;2023-03-22T07:46:19;96995.19;;;12.35;91.21
24962;BME280;12992;50.884;13.668;2023-03-22T07:48:44;97017.00;;;12.60;89.68
24962;BME280;12992;50.884;13.668;2023-03-22T07:51:35;97024.88;;;12.87;85.23
24962;BME280;12992;50.884;13.668;2023-03-22T07:54:03;97026.22;;;13.00;86.52
24962;BME280;12992;50.884;13.668;2023-03-22T07:56:29;97011.97;;;13.08;83.14
24962;BME280;12992;50.884;13.668;2023-03-22T07:58:54;97013.84;;;13.18;82.66
24962;BME280;12992;50.884;13.668;2023-03-22T08:01:19;97002.63;;;13.24;82.54
24962;BME280;12992;50.884;13.668;2023-03-22T08:04:15;97011.06;;;13.38;80.86
24962;BME280;12992;50.884;13.668;2023-03-22T08:06:48;97007.69;;;13.51;79.67
24962;BME280;12992;50.884;13.668;2023-03-22T08:09:14;97003.00;;;13.57;79.52
24962;BME280;12992;50.884;13.668;2023-03-22T08:11:40;96993.63;;;13.68;76.94
24962;BME280;12992;50.884;13.668;2023-03-22T08:14:05;96999.09;;;13.68;78.44
24962;BME280;12992;50.884;13.668;2023-03-22T08:16:33;97004.78;;;13.82;78.52
24962;BME280;12992;50.884;13.668;2023-03-22T08:19:00;97024.06;;;14.01;78.67
24962;BME280;12992;50.884;13.668;2023-03-22T08:21:27;97005.34;;;14.13;74.70
24962;BME280;12992;50.884;13.668;2023-03-22T08:23:55;97014.53;;;14.32;76.43
24962;BME280;12992;50.884;13.668;2023-03-22T08:26:38;97011.91;;;14.51;73.66
24962;BME280;12992;50.884;13.668;2023-03-22T08:29:13;96996.22;;;14.57;75.05
24962;BME280;12992;50.884;13.668;2023-03-22T08:31:38;96974.97;;;14.43;73.46
24962;BME280;12992;50.884;13.668;2023-03-22T08:34:03;96976.00;;;14.53;72.68
24962;BME280;12992;50.884;13.668;2023-03-22T08:36:29;96968.38;;;14.50;73.35
24962;BME280;12992;50.884;13.668;2023-03-22T08:38:58;96981.38;;;14.63;73.57
24962;BME280;12992;50.884;13.668;2023-03-22T08:41:35;96982.44;;;14.67;72.90
24962;BME280;12992;50.884;13.668;2023-03-22T08:44:01;96971.09;;;14.73;72.22
24962;BME280;12992;50.884;13.668;2023-03-22T08:46:27;96983.03;;;14.88;72.20
24962;BME280;12992;50.884;13.668;2023-03-22T08:48:53;97016.84;;;15.26;73.79
24962;BME280;12992;50.884;13.668;2023-03-22T08:51:25;96995.81;;;15.40;70.93
24962;BME280;12992;50.884;13.668;2023-03-22T08:54:10;97019.09;;;15.67;72.64
24962;BME280;12992;50.884;13.668;2023-03-22T08:56:51;97027.50;;;15.94;72.71
24962;BME280;12992;50.884;13.668;2023-03-22T08:59:35;97004.16;;;16.10;69.44
24962;BME280;12992;50.884;13.668;2023-03-22T09:02:33;96988.38;;;16.35;66.15
24962;BME280;12992;50.884;13.668;2023-03-22T09:04:59;97005.63;;;16.54;64.33
24962;BME280;12992;50.884;13.668;2023-03-22T09:07:25;97046.41;;;17.26;65.30
24962;BME280;12992;50.884;13.668;2023-03-22T09:10:03;97071.78;;;18.28;63.15
24962;BME280;12992;50.884;13.668;2023-03-22T09:12:31;97068.41;;;18.98;60.87
24962;BME280;12992;50.884;13.668;2023-03-22T09:14:57;97021.19;;;19.00;60.40
24962;BME280;12992;50.884;13.668;2023-03-22T09:17:25;96926.22;;;17.85;61.50
24962;BME280;12992;50.884;13.668;2023-03-22T09:19:50;96875.81;;;17.12;63.02
24962;BME280;12992;50.884;13.668;2023-03-22T09:22:15;96862.38;;;16.42;64.94
24962;BME280;12992;50.884;13.668;2023-03-22T09:24:45;96857.25;;;16.08;66.51
24962;BME280;12992;50.884;13.668;2023-03-22T09:27:11;96937.41;;;16.56;68.55
24962;BME280;12992;50.884;13.668;2023-03-22T09:29:36;96922.41;;;16.81;65.50
24962;BME280;12992;50.884;13.668;2023-03-22T09:32:06;96939.09;;;17.12;65.46
24962;BME280;12992;50.884;13.668;2023-03-22T09:34:33;96939.78;;;17.32;64.37
24962;BME280;12992;50.884;13.668;2023-03-22T09:36:59;96950.25;;;17.43;66.99
24962;BME280;12992;50.884;13.668;2023-03-22T09:39:29;96914.06;;;17.36;66.18
24962;BME280;12992;50.884;13.668;2023-03-22T09:42:00;96945.59;;;17.80;63.41
24962;BME280;12992;50.884;13.668;2023-03-22T09:44:40;96927.63;;;17.82;63.24
24962;BME280;12992;50.884;13.668;2023-03-22T09:47:23;96903.38;;;17.85;62.95
24962;BME280;12992;50.884;13.668;2023-03-22T09:50:01;96955.28;;;18.45;61.84
24962;BME280;12992;50.884;13.668;2023-03-22T09:52:28;96890.81;;;18.01;61.82
24962;BME280;12992;50.884;13.668;2023-03-22T09:54:53;96829.56;;;17.37;62.79
24962;BME280;12992;50.884;13.668;2023-03-22T10:02:52;96856.50;;;16.90;66.45
24962;BME280;12992;50.884;13.668;2023-03-22T10:05:22;96917.63;;;17.87;64.13
24962;BME280;12992;50.884;13.668;2023-03-22T10:08:08;96982.31;;;19.18;62.91
24962;BME280;12992;50.884;13.668;2023-03-22T10:10:37;96978.41;;;20.11;59.65
24962;BME280;12992;50.884;13.668;2023-03-22T10:13:16;96944.72;;;20.35;58.41
24962;BME280;12992;50.884;13.668;2023-03-22T10:15:49;96918.00;;;20.39;57.89
24962;BME280;12992;50.884;13.668;2023-03-22T10:18:29;96901.41;;;20.39;56.81
24962;BME280;12992;50.884;13.668;2023-03-22T10:21:00;96835.81;;;19.93;57.42
24962;BME280;12992;50.884;13.668;2023-03-22T10:23:40;96814.88;;;19.31;58.97
24962;BME280;12992;50.884;13.668;2023-03-22T10:26:15;96825.75;;;19.19;59.19
24962;BME280;12992;50.884;13.668;2023-03-22T10:28:43;96871.38;;;20.12;56.50
24962;BME280;12992;50.884;13.668;2023-03-22T10:31:15;96880.84;;;20.11;59.92
24962;BME280;12992;50.884;13.668;2023-03-22T10:36:18;96908.03;;;21.40;57.05
24962;BME280;12992;50.884;13.668;2023-03-22T10:38:52;96900.19;;;21.63;54.42
24962;BME280;12992;50.884;13.668;2023-03-22T10:41:19;96807.66;;;20.84;55.36
24962;BME280;12992;50.884;13.668;2023-03-22T10:43:52;96685.34;;;19.00;57.61
24962;BME280;12992;50.884;13.668;2023-03-22T10:46:22;96702.97;;;18.56;59.35
24962;BME280;12992;50.884;13.668;2023-03-22T10:48:50;96801.25;;;19.61;57.56
24962;BME280;12992;50.884;13.668;2023-03-22T10:51:22;96861.66;;;20.70;58.60
24962;BME280;12992;50.884;13.668;2023-03-22T10:53:53;96834.13;;;21.03;55.74
24962;BME280;12992;50.884;13.668;2023-03-22T10:56:19;96851.69;;;21.57;57.04
24962;BME280;12992;50.884;13.668;2023-03-22T10:58:46;96758.69;;;20.55;56.85
24962;BME280;12992;50.884;13.668;2023-03-22T11:01:14;96770.91;;;20.54;57.65
24962;BME280;12992;50.884;13.668;2023-03-22T11:03:48;96856.25;;;21.95;57.09
24962;BME280;12992;50.884;13.668;2023-03-22T11:06:19;96849.94;;;22.40;54.40
24962;BME280;12992;50.884;13.668;2023-03-22T11:08:48;96837.34;;;22.79;55.10
24962;BME280;12992;50.884;13.668;2023-03-22T11:12:00;96822.69;;;23.03;52.82
24962;BME280;12992;50.884;13.668;2023-03-22T11:14:13;96783.03;;;22.90;53.08
24962;BME280;12992;50.884;13.668;2023-03-22T11:16:51;96819.25;;;23.46;52.15
24962;BME280;12992;50.884;13.668;2023-03-22T11:19:24;96841.13;;;24.16;53.34
24962;BME280;12992;50.884;13.668;2023-03-22T11:21:51;96789.53;;;24.18;51.97
24962;BME280;12992;50.884;13.668;2023-03-22T11:24:17;96778.59;;;24.25;53.00
24962;BME280;12992;50.884;13.668;2023-03-22T11:29:40;96757.50;;;24.72;50.02
24962;BME280;12992;50.884;13.668;2023-03-22T11:32:34;96715.72;;;24.72;50.22
24962;BME280;12992;50.884;13.668;2023-03-22T11:35:22;96681.97;;;23.63;51.89
24962;BME280;12992;50.884;13.668;2023-03-22T11:37:52;96754.63;;;24.52;51.43
24962;BME280;12992;50.884;13.668;2023-03-22T11:40:26;96725.69;;;24.73;49.99
24962;BME280;12992;50.884;13.668;2023-03-22T11:42:54;96692.44;;;24.80;48.12
24962;BME280;12992;50.884;13.668;2023-03-22T11:45:30;96659.13;;;24.48;48.63
24962;BME280;12992;50.884;13.668;2023-03-22T11:48:08;96680.03;;;24.42;48.93
24962;BME280;12992;50.884;13.668;2023-03-22T11:50:36;96620.38;;;23.92;48.42
24962;BME280;12992;50.884;13.668;2023-03-22T11:53:05;96598.44;;;23.43;49.39
24962;BME280;12992;50.884;13.668;2023-03-22T11:55:33;96556.28;;;22.82;48.63
24962;BME280;12992;50.884;13.668;2023-03-22T11:58:01;96539.97;;;21.75;51.63
24962;BME280;12992;50.884;13.668;2023-03-22T12:00:29;96533.19;;;21.15;53.36
24962;BME280;12992;50.884;13.668;2023-03-22T12:03:01;96569.97;;;21.61;52.68
24962;BME280;12992;50.884;13.668;2023-03-22T12:05:31;96540.53;;;21.32;55.86
24962;BME280;12992;50.884;13.668;2023-03-22T12:08:00;96536.06;;;21.19;56.08
24962;BME280;12992;50.884;13.668;2023-03-22T12:10:31;96517.94;;;20.97;55.73
24962;BME280;12992;50.884;13.668;2023-03-22T12:13:04;96553.38;;;21.16;56.18
24962;BME280;12992;50.884;13.668;2023-03-22T12:15:34;96593.78;;;21.74;56.41
24962;BME280;12992;50.884;13.668;2023-03-22T12:18:06;96548.63;;;21.74;52.41
24962;BME280;12992;50.884;13.668;2023-03-22T12:20:43;96521.72;;;21.50;53.55
24962;BME280;12992;50.884;13.668;2023-03-22T12:23:17;96493.38;;;20.96;55.32
24962;BME280;12992;50.884;13.668;2023-03-22T12:26:05;96496.25;;;20.54;54.86
24962;BME280;12992;50.884;13.668;2023-03-22T12:28:34;96494.72;;;20.44;56.76
24962;BME280;12992;50.884;13.668;2023-03-22T12:31:03;96474.22;;;20.24;55.63
24962;BME280;12992;50.884;13.668;2023-03-22T12:33:41;96500.56;;;20.43;56.90
24962;BME280;12992;50.884;13.668;2023-03-22T12:36:14;96507.22;;;20.62;55.18
24962;BME280;12992;50.884;13.668;2023-03-22T12:38:43;96531.78;;;20.97;56.50
24962;BME280;12992;50.884;13.668;2023-03-22T12:41:14;96499.34;;;20.85;53.22
24962;BME280;12992;50.884;13.668;2023-03-22T12:44:08;96482.06;;;20.88;53.03
24962;BME280;12992;50.884;13.668;2023-03-22T12:46:47;96460.41;;;20.57;52.62
24962;BME280;12992;50.884;13.668;2023-03-22T12:49:22;96479.38;;;20.80;52.99
24962;BME280;12992;50.884;13.668;2023-03-22T12:51:54;96477.59;;;21.08;50.97
24962;BME280;12992;50.884;13.668;2023-03-22T12:54:25;96479.53;;;21.20;51.86
24962;BME280;12992;50.884;13.668;2023-03-22T12:56:51;96439.72;;;20.88;49.67
24962;BME280;12992;50.884;13.668;2023-03-22T12:59:25;96393.59;;;20.01;52.65
24962;BME280;12992;50.884;13.668;2023-03-22T13:02:22;96400.47;;;19.53;53.85
24962;BME280;12992;50.884;13.668;2023-03-22T13:04:55;96375.75;;;19.07;53.35
24962;BME280;12992;50.884;13.668;2023-03-22T13:09:56;96394.69;;;18.87;54.98
24962;BME280;12992;50.884;13.668;2023-03-22T13:20:00;96448.00;;;19.38;57.44
24962;BME280;12992;50.884;13.668;2023-03-22T13:27:58;96385.56;;;19.46;54.60
24962;BME280;12992;50.884;13.668;2023-03-22T13:33:35;96332.00;;;18.20;56.57
24962;BME280;12992;50.884;13.668;2023-03-22T13:36:21;96355.50;;;18.09;58.47
24962;BME280;12992;50.884;13.668;2023-03-22T13:38:56;96407.41;;;18.62;59.18
24962;BME280;12992;50.884;13.668;2023-03-22T13:41:30;96438.38;;;19.15;58.54
24962;BME280;12992;50.884;13.668;2023-03-22T13:43:58;96442.06;;;19.57;56.56
24962;BME280;12992;50.884;13.668;2023-03-22T13:49:29;96459.34;;;20.29;56.34
24962;BME280;12992;50.884;13.668;2023-03-22T13:51:59;96399.72;;;20.07;55.41
24962;BME280;12992;50.884;13.668;2023-03-22T13:54:36;96331.50;;;19.45;54.49
24962;BME280;12992;50.884;13.668;2023-03-22T13:57:15;96324.38;;;18.93;56.40
24962;BME280;12992;50.884;13.668;2023-03-22T13:59:59;96341.72;;;18.73;58.46
24962;BME280;12992;50.884;13.668;2023-03-22T14:02:27;96350.25;;;18.80;57.53
24962;BME280;12992;50.884;13.668;2023-03-22T14:05:06;96335.03;;;18.74;56.83
24962;BME280;12992;50.884;13.668;2023-03-22T14:07:40;96306.13;;;18.42;56.08
24962;BME280;12992;50.884;13.668;2023-03-22T14:15:19;96268.78;;;17.34;57.87
24962;BME280;12992;50.884;13.668;2023-03-22T14:17:48;96264.25;;;17.20;56.36
24962;BME280;12992;50.884;13.668;2023-03-22T14:20:18;96278.78;;;17.21;57.66
24962;BME280;12992;50.884;13.668;2023-03-22T14:22:53;96274.44;;;17.20;57.43